sensor_id;sensor_type;location;lat;lon;timestamp;noise_LAeq;noise_LA_min;noise_LA_max;noise_LA01;noise_LA95
76338;Laerm;20358;50.272;19.026;2023-02-03T00:00:51;49.19;36.39;75.48;;
76338;Laerm;20358;50.272;19.026;2023-02-03T00:03:57;44.74;34.82;65.33;;
76338;Laerm;20358;50.272;19.026;2023-02-03T00:07:03;43.47;34.43;65.86;;
76338;Laerm;20358;50.272;19.026;2023-02-03T00:10:13;51.49;36.90;72.15;;
76338;Laerm;20358;50.272;19.026;2023-02-03T00:13:23;44.49;35.52;65.53;;
76338;Laerm;20358;50.272;19.026;2023-02-03T00:16:29;50.53;35.10;68.93;;
76338;Laerm;20358;50.272;19.026;2023-02-03T00:19:35;45.75;35.20;68.37;;
76338;Laerm;20358;50.272;19.026;2023-02-03T00:22:41;50.61;35.12;69.20;;
76338;Laerm;20358;50.272;19.026;2023-02-03T00:25:50;53.38;35.73;79.89;;
76338;Laerm;20358;50.272;19.026;2023-02-03T00:28:58;46.70;35.83;65.85;;
76338;Laerm;20358;50.272;19.026;2023-02-03T00:32:05;53.80;35.96;77.16;;
76338;Laerm;20358;50.272;19.026;2023-02-03T00:35:11;47.04;34.81;69.47;;
76338;Laerm;20358;50.272;19.026;2023-02-03T00:38:17;44.17;34.97;63.36;;
76338;Laerm;20358;50.272;19.026;2023-02-03T00:41:29;51.72;35.94;71.61;;
76338;Laerm;20358;50.272;19.026;2023-02-03T00:44:36;48.67;35.27;71.98;;
76338;Laerm;20358;50.272;19.026;2023-02-03T00:47:41;46.91;35.03;66.96;;
76338;Laerm;20358;50.272;19.026;2023-02-03T00:50:48;45.45;35.27;68.02;;
76338;Laerm;20358;50.272;19.026;2023-02-03T00:53:54;47.87;35.09;71.02;;
76338;Laerm;20358;50.272;19.026;2023-02-03T00:57:03;45.20;34.90;65.74;;
76338;Laerm;20358;50.272;19.026;2023-02-03T01:00:10;44.14;35.50;65.41;;
76338;Laerm;20358;50.272;19.026;2023-02-03T01:03:17;46.00;34.89;65.09;;
76338;Laerm;20358;50.272;19.026;2023-02-03T01:06:24;45.36;35.02;68.58;;
76338;Laerm;20358;50.272;19.026;2023-02-03T01:09:32;49.71;34.78;72.66;;
76338;Laerm;20358;50.272;19.026;2023-02-03T01:12:41;48.17;34.96;70.18;;
76338;Laerm;20358;50.272;19.026;2023-02-03T01:15:47;49.29;35.00;69.21;;
76338;Laerm;20358;50.272;19.026;2023-02-03T01:18:54;47.97;35.24;72.15;;
76338;Laerm;20358;50.272;19.026;2023-02-03T01:22:03;46.12;34.66;66.37;;
76338;Laerm;20358;50.272;19.026;2023-02-03T01:25:08;46.26;35.68;65.53;;
76338;Laerm;20358;50.272;19.026;2023-02-03T01:28:18;48.21;34.07;71.21;;
76338;Laerm;20358;50.272;19.026;2023-02-03T01:31:27;48.03;34.34;65.63;;
76338;Laerm;20358;50.272;19.026;2023-02-03T01:34:34;49.42;35.34;69.40;;
76338;Laerm;20358;50.272;19.026;2023-02-03T01:37:40;43.68;34.80;57.47;;
76338;Laerm;20358;50.272;19.026;2023-02-03T01:40:46;46.72;35.01;69.79;;
76338;Laerm;20358;50.272;19.026;2023-02-03T01:43:58;43.61;35.06;66.35;;
76338;Laerm;20358;50.272;19.026;2023-02-03T01:47:23;44.30;34.51;61.69;;
76338;Laerm;20358;50.272;19.026;2023-02-03T01:50:36;45.10;34.65;69.69;;
76338;Laerm;20358;50.272;19.026;2023-02-03T01:53:43;49.73;35.48;67.71;;
76338;Laerm;20358;50.272;19.026;2023-02-03T01:56:59;50.61;34.92;70.11;;
76338;Laerm;20358;50.272;19.026;2023-02-03T02:00:12;53.29;35.32;76.48;;
76338;Laerm;20358;50.272;19.026;2023-02-03T02:03:24;45.56;35.38;68.91;;
76338;Laerm;20358;50.272;19.026;2023-02-03T02:06:31;46.88;35.16;70.80;;
76338;Laerm;20358;50.272;19.026;2023-02-03T02:09:37;43.08;34.90;63.51;;
76338;Laerm;20358;50.272;19.026;2023-02-03T02:12:44;45.47;35.24;70.37;;
76338;Laerm;20358;50.272;19.026;2023-02-03T02:16:05;41.25;34.68;63.96;;
76338;Laerm;20358;50.272;19.026;2023-02-03T02:19:57;42.13;34.45;60.28;;
76338;Laerm;20358;50.272;19.026;2023-02-03T02:28:09;45.98;34.49;71.24;;
76338;Laerm;20358;50.272;19.026;2023-02-03T02:32:05;46.62;35.13;67.78;;
76338;Laerm;20358;50.272;19.026;2023-02-03T02:35:31;47.03;35.20;66.22;;
76338;Laerm;20358;50.272;19.026;2023-02-03T02:38:56;45.96;35.06;66.06;;
76338;Laerm;20358;50.272;19.026;2023-02-03T02:42:18;45.31;34.53;67.34;;
76338;Laerm;20358;50.272;19.026;2023-02-03T02:45:34;42.01;34.95;60.06;;
76338;Laerm;20358;50.272;19.026;2023-02-03T02:48:54;42.52;34.86;65.64;;
76338;Laerm;20358;50.272;19.026;2023-02-03T02:52:07;41.30;34.29;62.56;;
76338;Laerm;20358;50.272;19.026;2023-02-03T02:55:20;42.05;34.80;60.04;;
76338;Laerm;20358;50.272;19.026;2023-02-03T02:58:37;43.69;35.19;68.80;;
76338;Laerm;20358;50.272;19.026;2023-02-03T03:01:43;42.24;34.15;67.04;;
76338;Laerm;20358;50.272;19.026;2023-02-03T03:04:54;45.83;34.49;69.18;;
76338;Laerm;20358;50.272;19.026;2023-02-03T03:08:01;45.10;34.95;64.86;;
76338;Laerm;20358;50.272;19.026;2023-02-03T03:11:08;43.85;35.50;58.69;;
76338;Laerm;20358;50.272;19.026;2023-02-03T03:14:19;45.30;35.00;67.14;;
76338;Laerm;20358;50.272;19.026;2023-02-03T03:17:36;45.93;35.83;68.01;;
76338;Laerm;20358;50.272;19.026;2023-02-03T03:20:55;42.33;35.82;61.24;;
76338;Laerm;20358;50.272;19.026;2023-02-03T03:24:16;45.33;35.35;62.65;;
76338;Laerm;20358;50.272;19.026;2023-02-03T03:27:30;42.46;35.71;57.67;;
76338;Laerm;20358;50.272;19.026;2023-02-03T03:30:38;48.68;36.55;66.40;;
76338;Laerm;20358;50.272;19.026;2023-02-03T03:33:45;50.06;36.42;71.44;;
76338;Laerm;20358;50.272;19.026;2023-02-03T03:37:06;46.25;36.07;61.54;;
76338;Laerm;20358;50.272;19.026;2023-02-03T03:40:25;48.26;36.78;65.96;;
76338;Laerm;20358;50.272;19.026;2023-02-03T03:43:38;47.82;36.03;61.01;;
76338;Laerm;20358;50.272;19.026;2023-02-03T03:46:57;48.45;36.97;66.22;;
76338;Laerm;20358;50.272;19.026;2023-02-03T03:50:12;45.77;35.71;68.34;;
76338;Laerm;20358;50.272;19.026;2023-02-03T03:53:24;46.30;35.54;57.24;;
76338;Laerm;20358;50.272;19.026;2023-02-03T04:00:05;48.58;36.89;67.67;;
76338;Laerm;20358;50.272;19.026;2023-02-03T04:03:22;49.90;36.25;66.83;;
76338;Laerm;20358;50.272;19.026;2023-02-03T04:06:28;47.96;36.84;62.34;;
76338;Laerm;20358;50.272;19.026;2023-02-03T04:09:38;49.18;37.54;67.54;;
76338;Laerm;20358;50.272;19.026;2023-02-03T04:12:44;48.62;37.83;64.87;;
76338;Laerm;20358;50.272;19.026;2023-02-03T04:15:50;48.54;36.73;65.39;;
76338;Laerm;20358;50.272;19.026;2023-02-03T04:18:56;49.38;37.21;70.88;;
76338;Laerm;20358;50.272;19.026;2023-02-03T04:22:02;46.93;37.18;62.35;;
76338;Laerm;20358;50.272;19.026;2023-02-03T04:25:10;49.06;37.04;66.29;;
76338;Laerm;20358;50.272;19.026;2023-02-03T04:28:16;49.96;37.53;71.33;;
76338;Laerm;20358;50.272;19.026;2023-02-03T04:31:22;51.39;40.06;71.37;;
76338;Laerm;20358;50.272;19.026;2023-02-03T04:34:28;51.40;38.27;67.50;;
76338;Laerm;20358;50.272;19.026;2023-02-03T04:37:34;51.96;37.63;72.88;;
76338;Laerm;20358;50.272;19.026;2023-02-03T04:40:43;50.66;39.51;65.95;;
76338;Laerm;20358;50.272;19.026;2023-02-03T04:43:48;51.72;40.75;69.41;;
76338;Laerm;20358;50.272;19.026;2023-02-03T04:46:55;53.58;39.33;69.60;;
76338;Laerm;20358;50.272;19.026;2023-02-03T04:50:00;52.79;40.31;69.04;;
76338;Laerm;20358;50.272;19.026;2023-02-03T04:53:07;52.90;40.74;71.52;;
76338;Laerm;20358;50.272;19.026;2023-02-03T04:56:15;51.11;39.71;70.38;;
76338;Laerm;20358;50.272;19.026;2023-02-03T04:59:22;54.18;41.67;72.25;;
76338;Laerm;20358;50.272;19.026;2023-02-03T05:02:27;51.18;41.06;68.36;;
76338;Laerm;20358;50.272;19.026;2023-02-03T05:05:35;52.15;41.71;73.43;;
76338;Laerm;20358;50.272;19.026;2023-02-03T05:08:40;50.88;39.97;75.30;;
76338;Laerm;20358;50.272;19.026;2023-02-03T05:11:50;51.00;40.69;67.64;;
76338;Laerm;20358;50.272;19.026;2023-02-03T05:14:55;50.60;40.14;67.00;;
76338;Laerm;20358;50.272;19.026;2023-02-03T05:18:01;52.03;41.93;70.42;;
76338;Laerm;20358;50.272;19.026;2023-02-03T05:21:07;51.94;42.79;68.78;;
76338;Laerm;20358;50.272;19.026;2023-02-03T05:24:13;52.34;42.11;68.39;;
76338;Laerm;20358;50.272;19.026;2023-02-03T05:27:22;53.00;44.54;70.78;;
76338;Laerm;20358;50.272;19.026;2023-02-03T05:30:28;52.92;42.56;70.27;;
76338;Laerm;20358;50.272;19.026;2023-02-03T05:33:34;52.73;43.34;70.15;;
76338;Laerm;20358;50.272;19.026;2023-02-03T05:36:40;51.85;43.86;70.70;;
76338;Laerm;20358;50.272;19.026;2023-02-03T05:39:45;53.19;44.76;69.31;;
76338;Laerm;20358;50.272;19.026;2023-02-03T05:42:54;53.80;44.09;68.59;;
76338;Laerm;20358;50.272;19.026;2023-02-03T05:45:59;53.74;44.30;67.87;;
76338;Laerm;20358;50.272;19.026;2023-02-03T05:49:06;54.12;42.67;76.52;;
76338;Laerm;20358;50.272;19.026;2023-02-03T05:52:11;52.29;43.11;69.20;;
76338;Laerm;20358;50.272;19.026;2023-02-03T05:55:18;52.57;43.33;67.63;;
76338;Laerm;20358;50.272;19.026;2023-02-03T05:58:26;53.69;44.18;68.30;;
76338;Laerm;20358;50.272;19.026;2023-02-03T06:01:33;54.04;42.10;70.29;;
76338;Laerm;20358;50.272;19.026;2023-02-03T06:04:39;52.86;43.20;68.40;;
76338;Laerm;20358;50.272;19.026;2023-02-03T06:07:46;51.92;41.90;67.39;;
76338;Laerm;20358;50.272;19.026;2023-02-03T06:10:56;53.23;41.06;68.21;;
76338;Laerm;20358;50.272;19.026;2023-02-03T06:14:06;52.15;43.73;65.54;;
76338;Laerm;20358;50.272;19.026;2023-02-03T06:17:12;54.06;47.81;70.03;;
76338;Laerm;20358;50.272;19.026;2023-02-03T06:20:19;52.83;41.95;68.79;;
76338;Laerm;20358;50.272;19.026;2023-02-03T06:23:25;53.25;41.44;71.57;;
76338;Laerm;20358;50.272;19.026;2023-02-03T06:26:31;51.82;40.38;66.27;;
76338;Laerm;20358;50.272;19.026;2023-02-03T06:29:39;53.12;42.62;69.46;;
76338;Laerm;20358;50.272;19.026;2023-02-03T06:32:47;59.59;43.60;88.49;;
76338;Laerm;20358;50.272;19.026;2023-02-03T06:35:53;54.46;42.26;77.73;;
76338;Laerm;20358;50.272;19.026;2023-02-03T06:38:59;53.21;44.26;68.84;;
76338;Laerm;20358;50.272;19.026;2023-02-03T06:42:04;54.35;42.96;71.49;;
76338;Laerm;20358;50.272;19.026;2023-02-03T06:45:14;52.29;43.48;67.99;;
76338;Laerm;20358;50.272;19.026;2023-02-03T06:48:20;52.83;42.93;68.66;;
76338;Laerm;20358;50.272;19.026;2023-02-03T06:51:26;55.47;45.44;75.16;;
76338;Laerm;20358;50.272;19.026;2023-02-03T06:54:32;56.15;45.06;77.84;;
76338;Laerm;20358;50.272;19.026;2023-02-03T06:57:46;55.35;46.27;71.87;;
76338;Laerm;20358;50.272;19.026;2023-02-03T07:00:57;53.93;44.04;70.59;;
76338;Laerm;20358;50.272;19.026;2023-02-03T07:04:04;52.05;43.01;69.77;;
76338;Laerm;20358;50.272;19.026;2023-02-03T07:07:10;52.79;45.45;67.06;;
76338;Laerm;20358;50.272;19.026;2023-02-03T07:10:17;52.70;43.01;68.64;;
76338;Laerm;20358;50.272;19.026;2023-02-03T07:13:22;52.14;45.36;64.08;;
76338;Laerm;20358;50.272;19.026;2023-02-03T07:16:31;55.27;45.22;72.52;;
76338;Laerm;20358;50.272;19.026;2023-02-03T07:19:38;51.78;44.45;66.48;;
76338;Laerm;20358;50.272;19.026;2023-02-03T07:22:52;53.29;46.10;69.77;;
76338;Laerm;20358;50.272;19.026;2023-02-03T07:25:58;54.44;43.02;74.79;;
76338;Laerm;20358;50.272;19.026;2023-02-03T07:29:06;52.41;43.07;69.60;;
76338;Laerm;20358;50.272;19.026;2023-02-03T07:32:14;56.37;43.84;77.06;;
76338;Laerm;20358;50.272;19.026;2023-02-03T07:35:21;53.14;43.20;69.30;;
76338;Laerm;20358;50.272;19.026;2023-02-03T07:38:27;52.79;45.85;66.44;;
76338;Laerm;20358;50.272;19.026;2023-02-03T07:41:34;53.17;46.74;66.37;;
76338;Laerm;20358;50.272;19.026;2023-02-03T07:44:39;53.08;47.20;66.64;;
76338;Laerm;20358;50.272;19.026;2023-02-03T07:47:49;53.93;48.19;68.67;;
76338;Laerm;20358;50.272;19.026;2023-02-03T07:50:55;54.06;48.73;65.59;;
76338;Laerm;20358;50.272;19.026;2023-02-03T07:54:04;54.80;48.74;71.84;;
76338;Laerm;20358;50.272;19.026;2023-02-03T07:57:10;53.79;48.29;68.07;;
76338;Laerm;20358;50.272;19.026;2023-02-03T08:00:17;54.07;48.75;67.10;;
76338;Laerm;20358;50.272;19.026;2023-02-03T08:03:26;54.93;49.37;71.05;;
76338;Laerm;20358;50.272;19.026;2023-02-03T08:06:33;53.14;48.50;67.84;;
76338;Laerm;20358;50.272;19.026;2023-02-03T08:09:38;53.67;48.37;69.03;;
76338;Laerm;20358;50.272;19.026;2023-02-03T08:12:44;54.37;48.66;68.64;;
76338;Laerm;20358;50.272;19.026;2023-02-03T08:15:50;54.30;47.95;71.11;;
76338;Laerm;20358;50.272;19.026;2023-02-03T08:18:59;54.59;49.90;69.07;;
76338;Laerm;20358;50.272;19.026;2023-02-03T08:22:05;53.66;47.91;71.40;;
76338;Laerm;20358;50.272;19.026;2023-02-03T08:25:18;55.32;49.21;70.04;;
76338;Laerm;20358;50.272;19.026;2023-02-03T08:28:24;52.71;48.38;64.67;;
76338;Laerm;20358;50.272;19.026;2023-02-03T08:31:30;54.17;48.27;68.87;;
76338;Laerm;20358;50.272;19.026;2023-02-03T08:34:40;53.85;49.01;68.09;;
76338;Laerm;20358;50.272;19.026;2023-02-03T08:37:46;54.16;48.39;69.20;;
76338;Laerm;20358;50.272;19.026;2023-02-03T08:40:52;54.38;49.68;70.59;;
76338;Laerm;20358;50.272;19.026;2023-02-03T08:43:58;55.11;47.84;69.04;;
76338;Laerm;20358;50.272;19.026;2023-02-03T08:47:05;56.69;49.73;75.61;;
76338;Laerm;20358;50.272;19.026;2023-02-03T08:50:15;54.57;48.02;66.81;;
76338;Laerm;20358;50.272;19.026;2023-02-03T08:53:21;54.71;47.95;68.00;;
76338;Laerm;20358;50.272;19.026;2023-02-03T08:56:27;54.54;48.84;70.52;;
76338;Laerm;20358;50.272;19.026;2023-02-03T08:59:39;55.34;48.87;70.43;;
76338;Laerm;20358;50.272;19.026;2023-02-03T09:02:46;54.58;48.18;69.72;;
76338;Laerm;20358;50.272;19.026;2023-02-03T09:05:54;53.85;49.16;69.90;;
76338;Laerm;20358;50.272;19.026;2023-02-03T09:09:03;55.47;48.31;72.29;;
76338;Laerm;20358;50.272;19.026;2023-02-03T09:12:09;53.83;47.92;71.39;;
76338;Laerm;20358;50.272;19.026;2023-02-03T09:15:15;54.66;48.00;68.49;;
76338;Laerm;20358;50.272;19.026;2023-02-03T09:18:21;53.88;48.90;64.60;;
76338;Laerm;20358;50.272;19.026;2023-02-03T09:21:30;54.01;48.85;66.95;;
76338;Laerm;20358;50.272;19.026;2023-02-03T09:24:47;54.54;48.07;68.06;;
76338;Laerm;20358;50.272;19.026;2023-02-03T09:27:54;54.82;48.19;70.13;;
76338;Laerm;20358;50.272;19.026;2023-02-03T09:31:00;54.04;48.42;64.29;;
76338;Laerm;20358;50.272;19.026;2023-02-03T09:34:08;54.68;47.23;68.38;;
76338;Laerm;20358;50.272;19.026;2023-02-03T09:37:16;53.51;48.14;62.87;;
76338;Laerm;20358;50.272;19.026;2023-02-03T09:40:30;54.84;48.00;70.99;;
76338;Laerm;20358;50.272;19.026;2023-02-03T09:43:46;55.06;48.59;68.62;;
76338;Laerm;20358;50.272;19.026;2023-02-03T09:47:00;54.94;48.84;69.92;;
76338;Laerm;20358;50.272;19.026;2023-02-03T09:50:15;53.27;47.92;64.39;;
76338;Laerm;20358;50.272;19.026;2023-02-03T09:53:34;54.42;48.58;69.10;;
76338;Laerm;20358;50.272;19.026;2023-02-03T09:56:43;54.75;48.39;66.37;;
76338;Laerm;20358;50.272;19.026;2023-02-03T09:59:57;54.55;49.23;69.05;;
76338;Laerm;20358;50.272;19.026;2023-02-03T10:03:14;54.40;47.46;71.14;;
76338;Laerm;20358;50.272;19.026;2023-02-03T10:06:32;54.16;47.02;67.80;;
76338;Laerm;20358;50.272;19.026;2023-02-03T10:09:58;53.84;48.40;62.21;;
76338;Laerm;20358;50.272;19.026;2023-02-03T10:13:26;56.83;47.72;78.89;;
76338;Laerm;20358;50.272;19.026;2023-02-03T10:16:57;54.60;48.95;63.70;;
76338;Laerm;20358;50.272;19.026;2023-02-03T10:20:17;53.10;48.20;62.75;;
76338;Laerm;20358;50.272;19.026;2023-02-03T10:23:32;54.35;48.07;62.87;;
76338;Laerm;20358;50.272;19.026;2023-02-03T10:26:43;53.33;48.40;60.89;;
76338;Laerm;20358;50.272;19.026;2023-02-03T10:29:57;53.32;47.55;64.04;;
76338;Laerm;20358;50.272;19.026;2023-02-03T10:33:11;52.74;48.06;62.15;;
76338;Laerm;20358;50.272;19.026;2023-02-03T10:36:20;53.37;47.15;61.50;;
76338;Laerm;20358;50.272;19.026;2023-02-03T10:39:32;53.26;48.44;60.99;;
76338;Laerm;20358;50.272;19.026;2023-02-03T10:42:47;60.09;47.55;83.81;;
76338;Laerm;20358;50.272;19.026;2023-02-03T10:46:09;53.79;46.93;67.69;;
76338;Laerm;20358;50.272;19.026;2023-02-03T10:49:16;52.72;47.53;68.27;;
76338;Laerm;20358;50.272;19.026;2023-02-03T10:52:29;53.23;47.73;60.93;;
76338;Laerm;20358;50.272;19.026;2023-02-03T10:55:35;53.27;47.62;64.78;;
76338;Laerm;20358;50.272;19.026;2023-02-03T10:58:51;60.68;46.33;78.04;;
76338;Laerm;20358;50.272;19.026;2023-02-03T11:01:58;53.31;47.88;65.56;;
76338;Laerm;20358;50.272;19.026;2023-02-03T11:05:18;53.74;48.14;70.94;;
76338;Laerm;20358;50.272;19.026;2023-02-03T11:08:29;52.45;47.36;64.10;;
76338;Laerm;20358;50.272;19.026;2023-02-03T11:11:36;56.78;47.73;70.83;;
76338;Laerm;20358;50.272;19.026;2023-02-03T11:14:48;53.90;45.78;67.84;;
76338;Laerm;20358;50.272;19.026;2023-02-03T11:17:55;53.99;46.73;62.26;;
76338;Laerm;20358;50.272;19.026;2023-02-03T11:21:08;52.51;47.47;62.80;;
76338;Laerm;20358;50.272;19.026;2023-02-03T11:24:21;55.75;47.72;74.70;;
76338;Laerm;20358;50.272;19.026;2023-02-03T11:27:31;52.67;46.17;64.62;;
76338;Laerm;20358;50.272;19.026;2023-02-03T11:30:41;52.11;46.81;61.13;;
76338;Laerm;20358;50.272;19.026;2023-02-03T11:33:53;54.04;47.15;66.80;;
76338;Laerm;20358;50.272;19.026;2023-02-03T11:37:26;55.14;46.43;77.58;;
76338;Laerm;20358;50.272;19.026;2023-02-03T11:40:33;53.22;47.36;70.82;;
76338;Laerm;20358;50.272;19.026;2023-02-03T11:43:40;54.67;46.99;74.17;;
76338;Laerm;20358;50.272;19.026;2023-02-03T11:46:55;53.36;46.88;66.48;;
76338;Laerm;20358;50.272;19.026;2023-02-03T11:50:22;53.35;46.56;68.40;;
76338;Laerm;20358;50.272;19.026;2023-02-03T11:54:01;52.22;46.35;68.07;;
76338;Laerm;20358;50.272;19.026;2023-02-03T11:57:27;53.79;46.26;66.51;;
76338;Laerm;20358;50.272;19.026;2023-02-03T12:00:55;53.27;46.09;63.31;;
76338;Laerm;20358;50.272;19.026;2023-02-03T12:04:52;52.59;46.24;66.15;;
76338;Laerm;20358;50.272;19.026;2023-02-03T12:08:24;52.44;46.82;65.80;;
76338;Laerm;20358;50.272;19.026;2023-02-03T12:11:57;52.82;45.70;62.77;;
76338;Laerm;20358;50.272;19.026;2023-02-03T12:15:41;53.34;46.95;64.38;;
76338;Laerm;20358;50.272;19.026;2023-02-03T12:19:11;53.77;47.64;72.38;;
76338;Laerm;20358;50.272;19.026;2023-02-03T12:22:35;53.62;47.42;63.96;;
76338;Laerm;20358;50.272;19.026;2023-02-03T12:26:04;54.16;47.26;67.14;;
76338;Laerm;20358;50.272;19.026;2023-02-03T12:29:20;53.97;47.60;64.09;;
76338;Laerm;20358;50.272;19.026;2023-02-03T12:32:44;54.56;47.78;66.48;;
76338;Laerm;20358;50.272;19.026;2023-02-03T12:36:08;53.91;46.48;68.59;;
76338;Laerm;20358;50.272;19.026;2023-02-03T12:39:39;54.37;47.55;67.75;;
76338;Laerm;20358;50.272;19.026;2023-02-03T12:42:55;54.53;49.23;66.77;;
76338;Laerm;20358;50.272;19.026;2023-02-03T12:46:13;54.20;48.42;67.81;;
76338;Laerm;20358;50.272;19.026;2023-02-03T12:49:35;54.39;46.56;63.60;;
76338;Laerm;20358;50.272;19.026;2023-02-03T12:52:50;53.67;46.36;63.04;;
76338;Laerm;20358;50.272;19.026;2023-02-03T12:56:07;54.38;47.45;64.35;;
76338;Laerm;20358;50.272;19.026;2023-02-03T12:59:21;53.25;45.79;64.97;;
76338;Laerm;20358;50.272;19.026;2023-02-03T13:02:37;54.64;47.36;65.25;;
76338;Laerm;20358;50.272;19.026;2023-02-03T13:05:55;53.52;46.43;63.15;;
76338;Laerm;20358;50.272;19.026;2023-02-03T13:09:22;55.32;46.05;66.46;;
76338;Laerm;20358;50.272;19.026;2023-02-03T13:12:41;54.88;45.63;65.36;;
76338;Laerm;20358;50.272;19.026;2023-02-03T13:15:53;56.14;45.53;67.84;;
76338;Laerm;20358;50.272;19.026;2023-02-03T13:19:12;54.24;46.22;63.12;;
76338;Laerm;20358;50.272;19.026;2023-02-03T13:22:22;57.07;44.74;68.72;;
76338;Laerm;20358;50.272;19.026;2023-02-03T13:25:52;53.22;44.25;68.04;;
76338;Laerm;20358;50.272;19.026;2023-02-03T13:29:29;53.32;43.37;66.52;;
76338;Laerm;20358;50.272;19.026;2023-02-03T13:33:34;52.12;43.35;70.82;;
76338;Laerm;20358;50.272;19.026;2023-02-03T13:37:19;53.30;44.22;65.66;;
76338;Laerm;20358;50.272;19.026;2023-02-03T13:40:47;53.15;44.00;66.40;;
76338;Laerm;20358;50.272;19.026;2023-02-03T13:43:57;53.53;44.49;67.71;;
76338;Laerm;20358;50.272;19.026;2023-02-03T13:47:18;53.99;47.03;69.97;;
76338;Laerm;20358;50.272;19.026;2023-02-03T13:50:29;53.72;44.07;68.70;;
76338;Laerm;20358;50.272;19.026;2023-02-03T13:53:40;53.68;46.28;63.46;;
76338;Laerm;20358;50.272;19.026;2023-02-03T13:56:57;55.70;47.73;70.19;;
76338;Laerm;20358;50.272;19.026;2023-02-03T14:03:57;57.16;49.35;72.57;;
76338;Laerm;20358;50.272;19.026;2023-02-03T14:07:31;61.54;48.94;86.42;;
76338;Laerm;20358;50.272;19.026;2023-02-03T14:10:37;55.21;48.65;62.54;;
76338;Laerm;20358;50.272;19.026;2023-02-03T14:13:44;56.55;49.67;78.98;;
76338;Laerm;20358;50.272;19.026;2023-02-03T14:16:51;56.05;46.67;73.12;;
76338;Laerm;20358;50.272;19.026;2023-02-03T14:20:33;55.66;48.02;70.99;;
76338;Laerm;20358;50.272;19.026;2023-02-03T14:23:51;54.75;46.50;70.00;;
76338;Laerm;20358;50.272;19.026;2023-02-03T14:27:05;56.97;48.79;76.68;;
76338;Laerm;20358;50.272;19.026;2023-02-03T14:30:20;55.51;47.03;72.41;;
76338;Laerm;20358;50.272;19.026;2023-02-03T14:33:49;54.46;48.69;70.52;;
76338;Laerm;20358;50.272;19.026;2023-02-03T14:37:18;56.25;47.66;75.36;;
76338;Laerm;20358;50.272;19.026;2023-02-03T14:40:42;55.05;47.52;75.43;;
76338;Laerm;20358;50.272;19.026;2023-02-03T14:44:09;55.31;48.62;76.40;;
76338;Laerm;20358;50.272;19.026;2023-02-03T14:47:42;55.31;48.03;65.16;;
76338;Laerm;20358;50.272;19.026;2023-02-03T14:51:07;56.45;46.92;79.67;;
76338;Laerm;20358;50.272;19.026;2023-02-03T14:54:47;66.03;50.73;83.16;;
76338;Laerm;20358;50.272;19.026;2023-02-03T14:58:00;58.45;47.08;74.97;;
76338;Laerm;20358;50.272;19.026;2023-02-03T15:01:25;57.42;49.41;71.82;;
76338;Laerm;20358;50.272;19.026;2023-02-03T15:04:31;58.32;48.88;71.49;;
76338;Laerm;20358;50.272;19.026;2023-02-03T15:07:41;56.74;48.28;68.61;;
76338;Laerm;20358;50.272;19.026;2023-02-03T15:10:53;56.78;49.36;76.53;;
76338;Laerm;20358;50.272;19.026;2023-02-03T15:14:22;58.12;47.85;78.26;;
76338;Laerm;20358;50.272;19.026;2023-02-03T15:17:28;57.27;49.55;68.82;;
76338;Laerm;20358;50.272;19.026;2023-02-03T15:20:38;56.51;48.03;71.61;;
76338;Laerm;20358;50.272;19.026;2023-02-03T15:23:47;60.84;49.15;80.84;;
76338;Laerm;20358;50.272;19.026;2023-02-03T15:26:56;57.81;48.71;76.64;;
76338;Laerm;20358;50.272;19.026;2023-02-03T15:30:16;59.58;47.84;87.49;;
76338;Laerm;20358;50.272;19.026;2023-02-03T15:33:24;56.07;48.99;72.40;;
76338;Laerm;20358;50.272;19.026;2023-02-03T15:36:40;56.02;48.96;80.06;;
76338;Laerm;20358;50.272;19.026;2023-02-03T15:40:00;55.51;47.57;73.56;;
76338;Laerm;20358;50.272;19.026;2023-02-03T15:43:19;55.82;48.59;70.44;;
76338;Laerm;20358;50.272;19.026;2023-02-03T15:46:35;55.27;48.44;67.07;;
76338;Laerm;20358;50.272;19.026;2023-02-03T15:49:47;55.82;50.17;66.64;;
76338;Laerm;20358;50.272;19.026;2023-02-03T15:53:05;57.55;49.62;75.23;;
76338;Laerm;20358;50.272;19.026;2023-02-03T15:56:23;57.99;49.39;80.86;;
76338;Laerm;20358;50.272;19.026;2023-02-03T15:59:51;58.32;49.11;76.77;;
76338;Laerm;20358;50.272;19.026;2023-02-03T16:03:03;61.77;50.18;88.28;;
76338;Laerm;20358;50.272;19.026;2023-02-03T16:06:23;66.13;49.54;93.33;;
76338;Laerm;20358;50.272;19.026;2023-02-03T16:09:32;61.58;50.56;82.83;;
76338;Laerm;20358;50.272;19.026;2023-02-03T16:12:39;58.73;48.20;75.82;;
76338;Laerm;20358;50.272;19.026;2023-02-03T16:15:59;58.12;49.34;75.77;;
76338;Laerm;20358;50.272;19.026;2023-02-03T16:19:15;57.83;47.85;76.28;;
76338;Laerm;20358;50.272;19.026;2023-02-03T16:22:27;57.64;48.01;77.53;;
76338;Laerm;20358;50.272;19.026;2023-02-03T16:25:35;58.69;48.53;76.44;;
76338;Laerm;20358;50.272;19.026;2023-02-03T16:28:41;54.47;47.76;65.65;;
76338;Laerm;20358;50.272;19.026;2023-02-03T16:32:25;56.75;48.15;74.42;;
76338;Laerm;20358;50.272;19.026;2023-02-03T16:35:47;56.24;47.72;75.50;;
76338;Laerm;20358;50.272;19.026;2023-02-03T16:39:11;55.58;46.06;69.34;;
76338;Laerm;20358;50.272;19.026;2023-02-03T16:42:39;56.57;47.59;74.83;;
76338;Laerm;20358;50.272;19.026;2023-02-03T16:46:01;56.72;47.00;79.07;;
76338;Laerm;20358;50.272;19.026;2023-02-03T16:49:25;55.95;46.82;72.22;;
76338;Laerm;20358;50.272;19.026;2023-02-03T16:52:46;55.83;47.00;70.38;;
76338;Laerm;20358;50.272;19.026;2023-02-03T16:55:55;55.09;46.42;74.27;;
76338;Laerm;20358;50.272;19.026;2023-02-03T16:59:02;57.16;48.49;74.32;;
76338;Laerm;20358;50.272;19.026;2023-02-03T17:02:09;59.66;48.10;78.22;;
76338;Laerm;20358;50.272;19.026;2023-02-03T17:05:19;57.52;48.38;77.53;;
76338;Laerm;20358;50.272;19.026;2023-02-03T17:08:25;57.86;48.63;76.57;;
76338;Laerm;20358;50.272;19.026;2023-02-03T17:11:31;57.72;46.76;74.95;;
76338;Laerm;20358;50.272;19.026;2023-02-03T17:14:37;57.28;46.93;71.20;;
76338;Laerm;20358;50.272;19.026;2023-02-03T17:17:43;57.84;50.42;70.50;;
76338;Laerm;20358;50.272;19.026;2023-02-03T17:20:52;58.02;49.33;76.54;;
76338;Laerm;20358;50.272;19.026;2023-02-03T17:24:01;60.15;47.85;80.80;;
76338;Laerm;20358;50.272;19.026;2023-02-03T17:27:07;60.16;47.57;86.45;;
76338;Laerm;20358;50.272;19.026;2023-02-03T17:30:14;59.05;46.68;81.18;;
76338;Laerm;20358;50.272;19.026;2023-02-03T17:33:19;60.11;48.02;80.86;;
76338;Laerm;20358;50.272;19.026;2023-02-03T17:36:28;57.71;47.06;77.04;;
76338;Laerm;20358;50.272;19.026;2023-02-03T17:39:34;54.93;47.23;70.40;;
76338;Laerm;20358;50.272;19.026;2023-02-03T17:42:58;54.86;45.35;69.77;;
76338;Laerm;20358;50.272;19.026;2023-02-03T17:46:23;54.70;44.63;68.44;;
76338;Laerm;20358;50.272;19.026;2023-02-03T17:49:48;55.47;47.28;75.40;;
76338;Laerm;20358;50.272;19.026;2023-02-03T17:53:13;56.47;46.32;74.84;;
76338;Laerm;20358;50.272;19.026;2023-02-03T17:56:25;58.22;47.94;78.49;;